Terminal Aerodrome Forecast
Issued by NWS Birmingham, AL

Home | Current Version | Previous Version | Text Only | Print | Product List | Glossary On
Versions: 1 2 3 4 5 6 7 8 9 10 11 12 13 14 15 16 17
563
FTUS44 KBMX 211226 AAA
TAFBHM
TAF AMD
KBHM 211226Z 2112/2212 15007KT P6SM SCT009 BKN050
      TEMPO 2112/2114 BKN009
     FM211500 18011G17KT P6SM BKN025
     FM211900 18012G18KT P6SM BKN040
     FM220000 17007KT P6SM BKN020
     FM220900 17006KT P6SM BKN007=

USA.gov is the U.S. government's official web portal to all federal, state and local government web resources and services.